sensor_id;sensor_type;location;lat;lon;timestamp;P1;durP1;ratioP1;P2;durP2;ratioP2
19951;SDS011;10137;49.406;19.484;2023-05-19T00:00:58;10.13;;;6.43;;
19951;SDS011;10137;49.406;19.484;2023-05-19T00:03:26;8.73;;;6.03;;
19951;SDS011;10137;49.406;19.484;2023-05-19T00:05:56;8.10;;;6.03;;
19951;SDS011;10137;49.406;19.484;2023-05-19T00:08:30;7.67;;;5.77;;
19951;SDS011;10137;49.406;19.484;2023-05-19T00:11:00;7.47;;;5.60;;
19951;SDS011;10137;49.406;19.484;2023-05-19T00:13:28;7.77;;;5.60;;
19951;SDS011;10137;49.406;19.484;2023-05-19T00:15:57;8.13;;;5.97;;
19951;SDS011;10137;49.406;19.484;2023-05-19T00:18:25;7.10;;;5.40;;
19951;SDS011;10137;49.406;19.484;2023-05-19T00:20:54;8.40;;;5.67;;
19951;SDS011;10137;49.406;19.484;2023-05-19T00:23:23;8.57;;;5.97;;
19951;SDS011;10137;49.406;19.484;2023-05-19T00:25:53;7.17;;;5.20;;
19951;SDS011;10137;49.406;19.484;2023-05-19T00:28:21;10.27;;;5.50;;
19951;SDS011;10137;49.406;19.484;2023-05-19T00:30:49;8.37;;;5.70;;
19951;SDS011;10137;49.406;19.484;2023-05-19T00:33:17;7.73;;;5.60;;
19951;SDS011;10137;49.406;19.484;2023-05-19T00:35:45;7.70;;;5.90;;
19951;SDS011;10137;49.406;19.484;2023-05-19T00:38:13;8.23;;;5.73;;
19951;SDS011;10137;49.406;19.484;2023-05-19T00:40:42;7.47;;;5.73;;
19951;SDS011;10137;49.406;19.484;2023-05-19T00:43:11;8.37;;;6.57;;
19951;SDS011;10137;49.406;19.484;2023-05-19T00:45:40;9.53;;;6.50;;
19951;SDS011;10137;49.406;19.484;2023-05-19T00:48:08;11.80;;;7.73;;
19951;SDS011;10137;49.406;19.484;2023-05-19T00:50:36;10.53;;;6.80;;
19951;SDS011;10137;49.406;19.484;2023-05-19T00:53:04;9.43;;;7.10;;
19951;SDS011;10137;49.406;19.484;2023-05-19T00:55:33;9.40;;;6.37;;
19951;SDS011;10137;49.406;19.484;2023-05-19T00:58:05;10.03;;;6.20;;
19951;SDS011;10137;49.406;19.484;2023-05-19T01:00:37;10.97;;;6.70;;
19951;SDS011;10137;49.406;19.484;2023-05-19T01:03:05;11.30;;;6.33;;
19951;SDS011;10137;49.406;19.484;2023-05-19T01:05:37;8.93;;;6.20;;
19951;SDS011;10137;49.406;19.484;2023-05-19T01:08:07;9.00;;;6.27;;
19951;SDS011;10137;49.406;19.484;2023-05-19T01:10:35;8.87;;;5.97;;
19951;SDS011;10137;49.406;19.484;2023-05-19T01:13:06;7.30;;;5.37;;
19951;SDS011;10137;49.406;19.484;2023-05-19T01:15:38;8.00;;;6.23;;
19951;SDS011;10137;49.406;19.484;2023-05-19T01:18:19;12.60;;;7.77;;
19951;SDS011;10137;49.406;19.484;2023-05-19T01:20:57;9.97;;;6.80;;
19951;SDS011;10137;49.406;19.484;2023-05-19T01:23:39;10.37;;;6.73;;
19951;SDS011;10137;49.406;19.484;2023-05-19T01:26:34;8.50;;;5.90;;
19951;SDS011;10137;49.406;19.484;2023-05-19T01:32:09;7.83;;;5.47;;
19951;SDS011;10137;49.406;19.484;2023-05-19T01:34:41;9.00;;;6.17;;
19951;SDS011;10137;49.406;19.484;2023-05-19T01:37:10;8.00;;;5.83;;
19951;SDS011;10137;49.406;19.484;2023-05-19T01:39:41;8.10;;;5.67;;
19951;SDS011;10137;49.406;19.484;2023-05-19T01:42:10;9.63;;;5.60;;
19951;SDS011;10137;49.406;19.484;2023-05-19T01:44:40;7.70;;;5.60;;
19951;SDS011;10137;49.406;19.484;2023-05-19T01:47:10;11.47;;;7.20;;
19951;SDS011;10137;49.406;19.484;2023-05-19T01:49:39;8.33;;;5.60;;
19951;SDS011;10137;49.406;19.484;2023-05-19T01:52:07;11.33;;;6.70;;
19951;SDS011;10137;49.406;19.484;2023-05-19T01:54:35;8.87;;;6.47;;
19951;SDS011;10137;49.406;19.484;2023-05-19T01:57:06;13.73;;;9.10;;
19951;SDS011;10137;49.406;19.484;2023-05-19T01:59:45;9.63;;;6.30;;
19951;SDS011;10137;49.406;19.484;2023-05-19T02:02:28;7.67;;;5.30;;
19951;SDS011;10137;49.406;19.484;2023-05-19T02:05:05;9.23;;;6.27;;
19951;SDS011;10137;49.406;19.484;2023-05-19T02:07:40;10.20;;;6.47;;
19951;SDS011;10137;49.406;19.484;2023-05-19T02:10:17;9.73;;;6.70;;
19951;SDS011;10137;49.406;19.484;2023-05-19T02:12:50;9.90;;;6.57;;
19951;SDS011;10137;49.406;19.484;2023-05-19T02:15:21;7.50;;;5.63;;
19951;SDS011;10137;49.406;19.484;2023-05-19T02:17:54;9.83;;;6.10;;
19951;SDS011;10137;49.406;19.484;2023-05-19T02:20:25;13.63;;;7.53;;
19951;SDS011;10137;49.406;19.484;2023-05-19T02:22:53;13.43;;;6.70;;
19951;SDS011;10137;49.406;19.484;2023-05-19T02:25:21;10.73;;;6.30;;
19951;SDS011;10137;49.406;19.484;2023-05-19T02:27:50;9.43;;;6.27;;
19951;SDS011;10137;49.406;19.484;2023-05-19T02:30:19;8.83;;;5.70;;
19951;SDS011;10137;49.406;19.484;2023-05-19T02:32:47;6.93;;;4.73;;
19951;SDS011;10137;49.406;19.484;2023-05-19T02:35:15;6.33;;;4.60;;
19951;SDS011;10137;49.406;19.484;2023-05-19T02:37:44;6.13;;;4.60;;
19951;SDS011;10137;49.406;19.484;2023-05-19T02:40:12;6.90;;;4.73;;
19951;SDS011;10137;49.406;19.484;2023-05-19T02:42:40;7.80;;;4.43;;
19951;SDS011;10137;49.406;19.484;2023-05-19T02:45:09;5.80;;;4.13;;
19951;SDS011;10137;49.406;19.484;2023-05-19T02:47:37;4.30;;;3.70;;
19951;SDS011;10137;49.406;19.484;2023-05-19T02:50:06;4.97;;;3.77;;
19951;SDS011;10137;49.406;19.484;2023-05-19T02:52:37;4.77;;;3.80;;
19951;SDS011;10137;49.406;19.484;2023-05-19T02:55:05;4.43;;;3.47;;
19951;SDS011;10137;49.406;19.484;2023-05-19T02:57:34;5.43;;;3.63;;
19951;SDS011;10137;49.406;19.484;2023-05-19T03:00:02;4.37;;;3.23;;
19951;SDS011;10137;49.406;19.484;2023-05-19T03:02:34;6.83;;;3.80;;
19951;SDS011;10137;49.406;19.484;2023-05-19T03:05:03;4.40;;;3.43;;
19951;SDS011;10137;49.406;19.484;2023-05-19T03:07:33;6.47;;;3.77;;
19951;SDS011;10137;49.406;19.484;2023-05-19T03:10:03;4.10;;;3.27;;
19951;SDS011;10137;49.406;19.484;2023-05-19T03:12:32;4.83;;;3.97;;
19951;SDS011;10137;49.406;19.484;2023-05-19T03:15:03;4.00;;;3.13;;
19951;SDS011;10137;49.406;19.484;2023-05-19T03:17:33;4.97;;;3.90;;
19951;SDS011;10137;49.406;19.484;2023-05-19T03:20:04;10.03;;;7.37;;
19951;SDS011;10137;49.406;19.484;2023-05-19T03:22:35;9.17;;;6.83;;
19951;SDS011;10137;49.406;19.484;2023-05-19T03:25:08;7.53;;;5.30;;
19951;SDS011;10137;49.406;19.484;2023-05-19T03:27:38;8.57;;;6.50;;
19951;SDS011;10137;49.406;19.484;2023-05-19T03:30:06;6.30;;;4.47;;
19951;SDS011;10137;49.406;19.484;2023-05-19T03:32:39;7.30;;;5.23;;
19951;SDS011;10137;49.406;19.484;2023-05-19T03:35:07;12.87;;;8.03;;
19951;SDS011;10137;49.406;19.484;2023-05-19T03:37:35;6.83;;;4.97;;
19951;SDS011;10137;49.406;19.484;2023-05-19T03:40:04;8.83;;;6.17;;
19951;SDS011;10137;49.406;19.484;2023-05-19T03:42:35;10.63;;;6.63;;
19951;SDS011;10137;49.406;19.484;2023-05-19T03:45:02;8.20;;;5.73;;
19951;SDS011;10137;49.406;19.484;2023-05-19T03:47:31;5.30;;;3.70;;
19951;SDS011;10137;49.406;19.484;2023-05-19T03:49:59;8.77;;;6.07;;
19951;SDS011;10137;49.406;19.484;2023-05-19T03:52:26;7.20;;;5.33;;
19951;SDS011;10137;49.406;19.484;2023-05-19T03:54:54;5.30;;;4.10;;
19951;SDS011;10137;49.406;19.484;2023-05-19T03:57:23;4.53;;;3.53;;
19951;SDS011;10137;49.406;19.484;2023-05-19T03:59:53;5.97;;;4.17;;
19951;SDS011;10137;49.406;19.484;2023-05-19T04:02:22;5.73;;;4.10;;
19951;SDS011;10137;49.406;19.484;2023-05-19T04:04:57;6.20;;;4.20;;
19951;SDS011;10137;49.406;19.484;2023-05-19T04:07:25;6.20;;;3.83;;
19951;SDS011;10137;49.406;19.484;2023-05-19T04:09:53;5.33;;;4.10;;
19951;SDS011;10137;49.406;19.484;2023-05-19T04:12:26;9.00;;;4.63;;
19951;SDS011;10137;49.406;19.484;2023-05-19T04:14:58;6.13;;;4.10;;
19951;SDS011;10137;49.406;19.484;2023-05-19T04:17:26;8.40;;;5.57;;
19951;SDS011;10137;49.406;19.484;2023-05-19T04:19:55;9.20;;;6.13;;
19951;SDS011;10137;49.406;19.484;2023-05-19T04:22:24;5.73;;;4.23;;
19951;SDS011;10137;49.406;19.484;2023-05-19T04:24:52;6.60;;;4.40;;
19951;SDS011;10137;49.406;19.484;2023-05-19T04:27:21;5.60;;;4.30;;
19951;SDS011;10137;49.406;19.484;2023-05-19T04:29:51;6.80;;;4.90;;
19951;SDS011;10137;49.406;19.484;2023-05-19T04:32:21;9.47;;;5.03;;
19951;SDS011;10137;49.406;19.484;2023-05-19T04:34:49;9.27;;;4.83;;
19951;SDS011;10137;49.406;19.484;2023-05-19T04:37:18;6.93;;;4.73;;
19951;SDS011;10137;49.406;19.484;2023-05-19T04:39:46;7.07;;;4.77;;
19951;SDS011;10137;49.406;19.484;2023-05-19T04:42:17;7.77;;;5.30;;
19951;SDS011;10137;49.406;19.484;2023-05-19T04:44:45;7.17;;;5.23;;
19951;SDS011;10137;49.406;19.484;2023-05-19T04:47:17;7.20;;;5.17;;
19951;SDS011;10137;49.406;19.484;2023-05-19T04:49:48;7.73;;;5.00;;
19951;SDS011;10137;49.406;19.484;2023-05-19T04:52:21;8.00;;;4.97;;
19951;SDS011;10137;49.406;19.484;2023-05-19T04:54:49;10.73;;;6.53;;
19951;SDS011;10137;49.406;19.484;2023-05-19T04:57:18;8.33;;;5.93;;
19951;SDS011;10137;49.406;19.484;2023-05-19T04:59:46;6.97;;;5.13;;
19951;SDS011;10137;49.406;19.484;2023-05-19T05:02:14;9.80;;;6.57;;
19951;SDS011;10137;49.406;19.484;2023-05-19T05:04:42;9.83;;;7.40;;
19951;SDS011;10137;49.406;19.484;2023-05-19T05:07:13;7.70;;;5.97;;
19951;SDS011;10137;49.406;19.484;2023-05-19T05:09:41;12.43;;;8.40;;
19951;SDS011;10137;49.406;19.484;2023-05-19T05:12:10;10.20;;;7.70;;
19951;SDS011;10137;49.406;19.484;2023-05-19T05:14:40;11.03;;;7.87;;
19951;SDS011;10137;49.406;19.484;2023-05-19T05:17:10;8.50;;;6.70;;
19951;SDS011;10137;49.406;19.484;2023-05-19T05:19:38;9.00;;;6.60;;
19951;SDS011;10137;49.406;19.484;2023-05-19T05:22:07;10.27;;;8.20;;
19951;SDS011;10137;49.406;19.484;2023-05-19T05:24:37;8.07;;;6.13;;
19951;SDS011;10137;49.406;19.484;2023-05-19T05:27:05;7.27;;;5.97;;
19951;SDS011;10137;49.406;19.484;2023-05-19T05:29:35;12.77;;;10.03;;
19951;SDS011;10137;49.406;19.484;2023-05-19T05:32:04;10.57;;;6.40;;
19951;SDS011;10137;49.406;19.484;2023-05-19T05:34:33;19.57;;;8.00;;
19951;SDS011;10137;49.406;19.484;2023-05-19T05:37:02;11.40;;;6.27;;
19951;SDS011;10137;49.406;19.484;2023-05-19T05:39:30;12.03;;;6.63;;
19951;SDS011;10137;49.406;19.484;2023-05-19T05:41:59;15.07;;;7.93;;
19951;SDS011;10137;49.406;19.484;2023-05-19T05:44:28;17.90;;;9.23;;
19951;SDS011;10137;49.406;19.484;2023-05-19T05:46:56;13.63;;;10.10;;
19951;SDS011;10137;49.406;19.484;2023-05-19T05:49:25;17.90;;;12.60;;
19951;SDS011;10137;49.406;19.484;2023-05-19T05:51:52;17.43;;;12.40;;
19951;SDS011;10137;49.406;19.484;2023-05-19T05:54:20;15.50;;;11.17;;
19951;SDS011;10137;49.406;19.484;2023-05-19T05:56:49;14.17;;;7.80;;
19951;SDS011;10137;49.406;19.484;2023-05-19T05:59:17;17.60;;;10.00;;
19951;SDS011;10137;49.406;19.484;2023-05-19T06:01:45;17.13;;;8.97;;
19951;SDS011;10137;49.406;19.484;2023-05-19T06:04:12;19.30;;;8.57;;
19951;SDS011;10137;49.406;19.484;2023-05-19T06:06:39;10.40;;;6.57;;
19951;SDS011;10137;49.406;19.484;2023-05-19T06:09:06;13.10;;;8.33;;
19951;SDS011;10137;49.406;19.484;2023-05-19T06:11:33;15.60;;;9.20;;
19951;SDS011;10137;49.406;19.484;2023-05-19T06:14:01;22.33;;;10.43;;
19951;SDS011;10137;49.406;19.484;2023-05-19T06:16:30;16.63;;;7.90;;
19951;SDS011;10137;49.406;19.484;2023-05-19T06:18:56;12.73;;;7.27;;
19951;SDS011;10137;49.406;19.484;2023-05-19T06:21:24;13.10;;;6.87;;
19951;SDS011;10137;49.406;19.484;2023-05-19T06:23:50;20.43;;;8.27;;
19951;SDS011;10137;49.406;19.484;2023-05-19T06:26:18;15.87;;;8.60;;
19951;SDS011;10137;49.406;19.484;2023-05-19T06:28:45;10.07;;;6.03;;
19951;SDS011;10137;49.406;19.484;2023-05-19T06:31:12;7.73;;;5.43;;
19951;SDS011;10137;49.406;19.484;2023-05-19T06:33:41;7.10;;;5.57;;
19951;SDS011;10137;49.406;19.484;2023-05-19T06:36:08;9.53;;;6.60;;
19951;SDS011;10137;49.406;19.484;2023-05-19T06:38:36;6.73;;;5.20;;
19951;SDS011;10137;49.406;19.484;2023-05-19T06:41:03;16.33;;;7.13;;
19951;SDS011;10137;49.406;19.484;2023-05-19T06:43:30;10.80;;;6.07;;
19951;SDS011;10137;49.406;19.484;2023-05-19T06:45:57;13.17;;;6.67;;
19951;SDS011;10137;49.406;19.484;2023-05-19T06:48:24;7.57;;;5.57;;
19951;SDS011;10137;49.406;19.484;2023-05-19T06:50:52;7.53;;;5.73;;
19951;SDS011;10137;49.406;19.484;2023-05-19T06:53:20;9.07;;;5.97;;
19951;SDS011;10137;49.406;19.484;2023-05-19T06:55:47;10.73;;;5.60;;
19951;SDS011;10137;49.406;19.484;2023-05-19T06:58:15;10.33;;;6.27;;
19951;SDS011;10137;49.406;19.484;2023-05-19T07:00:42;7.23;;;5.47;;
19951;SDS011;10137;49.406;19.484;2023-05-19T07:03:09;11.23;;;7.87;;
19951;SDS011;10137;49.406;19.484;2023-05-19T07:05:36;13.10;;;8.10;;
19951;SDS011;10137;49.406;19.484;2023-05-19T07:08:04;7.77;;;5.10;;
19951;SDS011;10137;49.406;19.484;2023-05-19T07:10:32;15.83;;;5.07;;
19951;SDS011;10137;49.406;19.484;2023-05-19T07:13:02;7.50;;;5.30;;
19951;SDS011;10137;49.406;19.484;2023-05-19T07:15:29;10.53;;;5.40;;
19951;SDS011;10137;49.406;19.484;2023-05-19T07:17:57;5.27;;;4.13;;
19951;SDS011;10137;49.406;19.484;2023-05-19T07:20:25;11.37;;;5.20;;
19951;SDS011;10137;49.406;19.484;2023-05-19T07:22:52;7.40;;;5.00;;
19951;SDS011;10137;49.406;19.484;2023-05-19T07:25:21;8.73;;;5.10;;
19951;SDS011;10137;49.406;19.484;2023-05-19T07:27:48;5.97;;;4.67;;
19951;SDS011;10137;49.406;19.484;2023-05-19T07:30:15;9.73;;;5.03;;
19951;SDS011;10137;49.406;19.484;2023-05-19T07:32:42;9.37;;;4.87;;
19951;SDS011;10137;49.406;19.484;2023-05-19T07:35:09;9.90;;;6.27;;
19951;SDS011;10137;49.406;19.484;2023-05-19T07:37:36;8.07;;;5.20;;
19951;SDS011;10137;49.406;19.484;2023-05-19T07:40:03;11.70;;;8.30;;
19951;SDS011;10137;49.406;19.484;2023-05-19T07:42:33;6.23;;;4.97;;
19951;SDS011;10137;49.406;19.484;2023-05-19T07:45:00;5.90;;;4.47;;
19951;SDS011;10137;49.406;19.484;2023-05-19T07:47:28;5.70;;;4.30;;
19951;SDS011;10137;49.406;19.484;2023-05-19T07:49:55;10.87;;;4.87;;
19951;SDS011;10137;49.406;19.484;2023-05-19T07:52:22;6.47;;;4.73;;
19951;SDS011;10137;49.406;19.484;2023-05-19T07:54:49;5.73;;;4.40;;
19951;SDS011;10137;49.406;19.484;2023-05-19T07:57:17;10.67;;;5.10;;
19951;SDS011;10137;49.406;19.484;2023-05-19T07:59:45;8.43;;;5.23;;
19951;SDS011;10137;49.406;19.484;2023-05-19T08:02:12;4.87;;;4.03;;
19951;SDS011;10137;49.406;19.484;2023-05-19T08:04:39;5.53;;;4.80;;
19951;SDS011;10137;49.406;19.484;2023-05-19T08:07:06;7.63;;;4.50;;
19951;SDS011;10137;49.406;19.484;2023-05-19T08:09:33;5.67;;;4.40;;
19951;SDS011;10137;49.406;19.484;2023-05-19T08:12:01;5.23;;;4.10;;
19951;SDS011;10137;49.406;19.484;2023-05-19T08:14:29;6.93;;;4.80;;
19951;SDS011;10137;49.406;19.484;2023-05-19T08:16:58;6.80;;;4.27;;
19951;SDS011;10137;49.406;19.484;2023-05-19T08:19:26;9.37;;;4.77;;
19951;SDS011;10137;49.406;19.484;2023-05-19T08:21:54;9.40;;;4.93;;
19951;SDS011;10137;49.406;19.484;2023-05-19T08:24:22;10.63;;;4.90;;
19951;SDS011;10137;49.406;19.484;2023-05-19T08:26:50;6.33;;;4.60;;
19951;SDS011;10137;49.406;19.484;2023-05-19T08:29:17;11.13;;;5.03;;
19951;SDS011;10137;49.406;19.484;2023-05-19T08:31:44;9.27;;;4.90;;
19951;SDS011;10137;49.406;19.484;2023-05-19T08:34:13;8.43;;;4.80;;
19951;SDS011;10137;49.406;19.484;2023-05-19T08:36:40;6.87;;;4.57;;
19951;SDS011;10137;49.406;19.484;2023-05-19T08:39:09;4.70;;;3.97;;
19951;SDS011;10137;49.406;19.484;2023-05-19T08:41:38;5.40;;;4.03;;
19951;SDS011;10137;49.406;19.484;2023-05-19T08:44:05;6.67;;;4.17;;
19951;SDS011;10137;49.406;19.484;2023-05-19T08:46:32;7.80;;;4.70;;
19951;SDS011;10137;49.406;19.484;2023-05-19T08:49:00;8.93;;;4.97;;
19951;SDS011;10137;49.406;19.484;2023-05-19T08:51:38;10.27;;;4.90;;
19951;SDS011;10137;49.406;19.484;2023-05-19T08:54:13;6.20;;;4.40;;
19951;SDS011;10137;49.406;19.484;2023-05-19T08:56:42;5.67;;;4.60;;
19951;SDS011;10137;49.406;19.484;2023-05-19T08:59:10;6.80;;;4.40;;
19951;SDS011;10137;49.406;19.484;2023-05-19T09:01:38;8.87;;;5.03;;
19951;SDS011;10137;49.406;19.484;2023-05-19T09:04:07;7.87;;;4.80;;
19951;SDS011;10137;49.406;19.484;2023-05-19T09:06:37;7.43;;;4.57;;
19951;SDS011;10137;49.406;19.484;2023-05-19T09:09:06;7.67;;;4.53;;
19951;SDS011;10137;49.406;19.484;2023-05-19T09:11:33;8.77;;;5.23;;
19951;SDS011;10137;49.406;19.484;2023-05-19T09:14:01;12.97;;;6.73;;
19951;SDS011;10137;49.406;19.484;2023-05-19T09:16:28;6.33;;;5.03;;
19951;SDS011;10137;49.406;19.484;2023-05-19T09:18:56;12.80;;;5.30;;
19951;SDS011;10137;49.406;19.484;2023-05-19T09:21:28;7.53;;;5.30;;
19951;SDS011;10137;49.406;19.484;2023-05-19T09:24:04;8.67;;;5.23;;
19951;SDS011;10137;49.406;19.484;2023-05-19T09:26:34;7.20;;;4.50;;
19951;SDS011;10137;49.406;19.484;2023-05-19T09:29:09;7.73;;;4.03;;
19951;SDS011;10137;49.406;19.484;2023-05-19T09:31:36;6.43;;;4.23;;
19951;SDS011;10137;49.406;19.484;2023-05-19T09:34:04;5.93;;;4.20;;
19951;SDS011;10137;49.406;19.484;2023-05-19T09:36:38;5.57;;;4.30;;
19951;SDS011;10137;49.406;19.484;2023-05-19T09:39:12;5.33;;;4.57;;
19951;SDS011;10137;49.406;19.484;2023-05-19T09:41:40;6.53;;;4.67;;
19951;SDS011;10137;49.406;19.484;2023-05-19T09:44:11;5.83;;;4.30;;
19951;SDS011;10137;49.406;19.484;2023-05-19T09:46:46;7.30;;;5.10;;
19951;SDS011;10137;49.406;19.484;2023-05-19T09:49:17;7.13;;;4.50;;
19951;SDS011;10137;49.406;19.484;2023-05-19T09:51:47;4.93;;;4.23;;
19951;SDS011;10137;49.406;19.484;2023-05-19T09:54:17;7.30;;;4.43;;
19951;SDS011;10137;49.406;19.484;2023-05-19T09:56:55;5.83;;;3.90;;
19951;SDS011;10137;49.406;19.484;2023-05-19T09:59:25;5.57;;;4.03;;
19951;SDS011;10137;49.406;19.484;2023-05-19T10:01:55;6.23;;;3.63;;
19951;SDS011;10137;49.406;19.484;2023-05-19T10:04:28;6.93;;;4.60;;
19951;SDS011;10137;49.406;19.484;2023-05-19T10:06:57;7.17;;;4.40;;
19951;SDS011;10137;49.406;19.484;2023-05-19T10:09:28;15.47;;;9.07;;
19951;SDS011;10137;49.406;19.484;2023-05-19T10:11:56;11.87;;;5.40;;
19951;SDS011;10137;49.406;19.484;2023-05-19T10:14:25;8.90;;;4.10;;
19951;SDS011;10137;49.406;19.484;2023-05-19T10:16:54;6.07;;;4.77;;
19951;SDS011;10137;49.406;19.484;2023-05-19T10:19:23;6.40;;;3.90;;
19951;SDS011;10137;49.406;19.484;2023-05-19T10:21:54;5.60;;;4.40;;
19951;SDS011;10137;49.406;19.484;2023-05-19T10:24:21;7.03;;;4.40;;
19951;SDS011;10137;49.406;19.484;2023-05-19T10:26:52;6.20;;;4.50;;
19951;SDS011;10137;49.406;19.484;2023-05-19T10:29:26;6.60;;;4.63;;
19951;SDS011;10137;49.406;19.484;2023-05-19T10:31:58;6.77;;;4.43;;
19951;SDS011;10137;49.406;19.484;2023-05-19T10:34:35;8.03;;;4.73;;
19951;SDS011;10137;49.406;19.484;2023-05-19T10:37:49;4.90;;;4.40;;
19951;SDS011;10137;49.406;19.484;2023-05-19T10:40:25;6.30;;;4.57;;
19951;SDS011;10137;49.406;19.484;2023-05-19T10:43:00;5.70;;;4.23;;
19951;SDS011;10137;49.406;19.484;2023-05-19T10:45:39;6.03;;;4.17;;
19951;SDS011;10137;49.406;19.484;2023-05-19T10:48:13;4.83;;;3.73;;
19951;SDS011;10137;49.406;19.484;2023-05-19T10:50:42;5.17;;;4.10;;
19951;SDS011;10137;49.406;19.484;2023-05-19T10:53:15;5.37;;;3.93;;
19951;SDS011;10137;49.406;19.484;2023-05-19T10:55:45;4.60;;;3.83;;
19951;SDS011;10137;49.406;19.484;2023-05-19T11:01:17;6.47;;;3.90;;
19951;SDS011;10137;49.406;19.484;2023-05-19T11:03:47;5.57;;;4.03;;
19951;SDS011;10137;49.406;19.484;2023-05-19T11:06:17;4.43;;;4.00;;
19951;SDS011;10137;49.406;19.484;2023-05-19T11:08:51;6.20;;;3.87;;
19951;SDS011;10137;49.406;19.484;2023-05-19T11:11:21;7.10;;;4.07;;
19951;SDS011;10137;49.406;19.484;2023-05-19T11:13:53;7.07;;;4.07;;
19951;SDS011;10137;49.406;19.484;2023-05-19T11:16:26;6.77;;;4.00;;
19951;SDS011;10137;49.406;19.484;2023-05-19T11:18:54;4.30;;;3.90;;
19951;SDS011;10137;49.406;19.484;2023-05-19T11:21:39;5.43;;;4.37;;
19951;SDS011;10137;49.406;19.484;2023-05-19T11:24:09;5.83;;;4.50;;
19951;SDS011;10137;49.406;19.484;2023-05-19T11:26:40;9.03;;;4.67;;
19951;SDS011;10137;49.406;19.484;2023-05-19T11:29:11;5.97;;;4.20;;
19951;SDS011;10137;49.406;19.484;2023-05-19T11:31:39;6.20;;;4.20;;
19951;SDS011;10137;49.406;19.484;2023-05-19T11:34:10;5.20;;;4.30;;
19951;SDS011;10137;49.406;19.484;2023-05-19T11:36:38;8.97;;;4.37;;
19951;SDS011;10137;49.406;19.484;2023-05-19T11:39:08;6.43;;;4.00;;
19951;SDS011;10137;49.406;19.484;2023-05-19T11:41:38;5.83;;;4.43;;
19951;SDS011;10137;49.406;19.484;2023-05-19T11:44:10;5.03;;;3.93;;
19951;SDS011;10137;49.406;19.484;2023-05-19T11:46:38;7.50;;;4.20;;
19951;SDS011;10137;49.406;19.484;2023-05-19T11:49:07;5.43;;;4.10;;
19951;SDS011;10137;49.406;19.484;2023-05-19T11:51:37;6.67;;;4.03;;
19951;SDS011;10137;49.406;19.484;2023-05-19T11:54:10;5.73;;;4.20;;
19951;SDS011;10137;49.406;19.484;2023-05-19T11:56:41;5.33;;;4.13;;
19951;SDS011;10137;49.406;19.484;2023-05-19T11:59:15;4.87;;;4.27;;
19951;SDS011;10137;49.406;19.484;2023-05-19T12:01:56;6.23;;;3.97;;
19951;SDS011;10137;49.406;19.484;2023-05-19T12:04:37;6.10;;;4.47;;
19951;SDS011;10137;49.406;19.484;2023-05-19T12:07:11;6.10;;;4.03;;
19951;SDS011;10137;49.406;19.484;2023-05-19T12:09:43;6.30;;;4.53;;
19951;SDS011;10137;49.406;19.484;2023-05-19T12:12:12;8.00;;;4.80;;
19951;SDS011;10137;49.406;19.484;2023-05-19T12:14:44;5.20;;;4.43;;
19951;SDS011;10137;49.406;19.484;2023-05-19T12:17:19;8.00;;;5.13;;
19951;SDS011;10137;49.406;19.484;2023-05-19T12:19:49;6.73;;;5.20;;
19951;SDS011;10137;49.406;19.484;2023-05-19T12:22:18;7.33;;;4.43;;
19951;SDS011;10137;49.406;19.484;2023-05-19T12:24:45;8.37;;;4.40;;
19951;SDS011;10137;49.406;19.484;2023-05-19T12:27:16;9.43;;;4.60;;
19951;SDS011;10137;49.406;19.484;2023-05-19T12:29:53;6.00;;;4.30;;
19951;SDS011;10137;49.406;19.484;2023-05-19T12:32:23;4.93;;;4.10;;
19951;SDS011;10137;49.406;19.484;2023-05-19T12:34:51;7.40;;;4.00;;
19951;SDS011;10137;49.406;19.484;2023-05-19T12:37:23;10.47;;;5.30;;
19951;SDS011;10137;49.406;19.484;2023-05-19T12:39:54;7.90;;;4.40;;
19951;SDS011;10137;49.406;19.484;2023-05-19T12:42:22;8.50;;;4.30;;
19951;SDS011;10137;49.406;19.484;2023-05-19T12:44:57;7.27;;;4.73;;
19951;SDS011;10137;49.406;19.484;2023-05-19T12:47:31;5.37;;;4.30;;
19951;SDS011;10137;49.406;19.484;2023-05-19T12:50:03;5.23;;;4.50;;
19951;SDS011;10137;49.406;19.484;2023-05-19T12:52:39;7.10;;;4.67;;
19951;SDS011;10137;49.406;19.484;2023-05-19T12:55:11;6.50;;;4.90;;
19951;SDS011;10137;49.406;19.484;2023-05-19T12:57:42;7.43;;;4.70;;
19951;SDS011;10137;49.406;19.484;2023-05-19T13:00:18;5.40;;;4.50;;
19951;SDS011;10137;49.406;19.484;2023-05-19T13:02:57;5.73;;;4.27;;
19951;SDS011;10137;49.406;19.484;2023-05-19T13:05:30;8.37;;;4.87;;
19951;SDS011;10137;49.406;19.484;2023-05-19T13:08:01;7.10;;;4.77;;
19951;SDS011;10137;49.406;19.484;2023-05-19T13:10:35;7.83;;;5.13;;
19951;SDS011;10137;49.406;19.484;2023-05-19T13:13:06;7.93;;;5.40;;
19951;SDS011;10137;49.406;19.484;2023-05-19T13:15:38;11.23;;;5.80;;
19951;SDS011;10137;49.406;19.484;2023-05-19T13:18:08;7.53;;;5.13;;
19951;SDS011;10137;49.406;19.484;2023-05-19T13:20:42;13.00;;;5.50;;
19951;SDS011;10137;49.406;19.484;2023-05-19T13:23:11;7.80;;;5.93;;
19951;SDS011;10137;49.406;19.484;2023-05-19T13:25:40;9.20;;;5.47;;
19951;SDS011;10137;49.406;19.484;2023-05-19T13:28:09;8.10;;;5.63;;
19951;SDS011;10137;49.406;19.484;2023-05-19T13:30:39;8.00;;;5.40;;
19951;SDS011;10137;49.406;19.484;2023-05-19T13:33:06;8.53;;;5.80;;
19951;SDS011;10137;49.406;19.484;2023-05-19T13:35:33;6.87;;;5.73;;
19951;SDS011;10137;49.406;19.484;2023-05-19T13:38:02;13.00;;;5.80;;
19951;SDS011;10137;49.406;19.484;2023-05-19T13:40:29;10.17;;;6.30;;
19951;SDS011;10137;49.406;19.484;2023-05-19T13:42:59;8.10;;;5.57;;
19951;SDS011;10137;49.406;19.484;2023-05-19T13:45:26;8.30;;;5.57;;
19951;SDS011;10137;49.406;19.484;2023-05-19T13:47:55;8.23;;;5.07;;
19951;SDS011;10137;49.406;19.484;2023-05-19T13:50:22;10.07;;;5.00;;
19951;SDS011;10137;49.406;19.484;2023-05-19T13:52:49;7.03;;;5.67;;
19951;SDS011;10137;49.406;19.484;2023-05-19T13:55:16;6.20;;;4.97;;
19951;SDS011;10137;49.406;19.484;2023-05-19T13:57:43;10.37;;;5.67;;
19951;SDS011;10137;49.406;19.484;2023-05-19T14:00:11;6.47;;;4.70;;
19951;SDS011;10137;49.406;19.484;2023-05-19T14:02:40;6.93;;;5.23;;
19951;SDS011;10137;49.406;19.484;2023-05-19T14:05:08;9.93;;;5.13;;
19951;SDS011;10137;49.406;19.484;2023-05-19T14:07:35;10.10;;;5.50;;
19951;SDS011;10137;49.406;19.484;2023-05-19T14:10:03;9.97;;;5.70;;
19951;SDS011;10137;49.406;19.484;2023-05-19T14:12:30;8.27;;;5.70;;
19951;SDS011;10137;49.406;19.484;2023-05-19T14:14:59;5.93;;;4.80;;
19951;SDS011;10137;49.406;19.484;2023-05-19T14:17:26;7.00;;;4.87;;
19951;SDS011;10137;49.406;19.484;2023-05-19T14:19:53;7.53;;;4.87;;
19951;SDS011;10137;49.406;19.484;2023-05-19T14:22:22;6.77;;;5.53;;
19951;SDS011;10137;49.406;19.484;2023-05-19T14:24:49;9.43;;;6.40;;
19951;SDS011;10137;49.406;19.484;2023-05-19T14:27:16;11.43;;;6.53;;
19951;SDS011;10137;49.406;19.484;2023-05-19T14:29:43;11.37;;;5.73;;
19951;SDS011;10137;49.406;19.484;2023-05-19T14:32:10;10.00;;;5.57;;
19951;SDS011;10137;49.406;19.484;2023-05-19T14:34:37;7.40;;;6.03;;
19951;SDS011;10137;49.406;19.484;2023-05-19T14:37:04;9.20;;;5.33;;
19951;SDS011;10137;49.406;19.484;2023-05-19T14:39:33;10.53;;;6.70;;
19951;SDS011;10137;49.406;19.484;2023-05-19T14:41:59;9.40;;;6.17;;
19951;SDS011;10137;49.406;19.484;2023-05-19T14:44:28;10.17;;;6.10;;
19951;SDS011;10137;49.406;19.484;2023-05-19T14:46:57;17.20;;;8.80;;
19951;SDS011;10137;49.406;19.484;2023-05-19T14:49:25;7.63;;;5.10;;
19951;SDS011;10137;49.406;19.484;2023-05-19T14:51:52;11.07;;;8.60;;